sensor_id;sensor_type;location;lat;lon;timestamp;pressure;altitude;pressure_sealevel;temperature;humidity
79316;BME280;68779;50.036;19.964;2023-05-15T00:11:00;101054.61;;;14.83;74.46
79316;BME280;68779;50.036;19.964;2023-05-15T00:41:17;101010.20;;;14.47;76.41
79316;BME280;68779;50.036;19.964;2023-05-15T01:11:38;100966.42;;;14.13;77.87
79316;BME280;68779;50.036;19.964;2023-05-15T02:12:22;100921.78;;;14.38;77.37
79316;BME280;68779;50.036;19.964;2023-05-15T02:42:38;100879.62;;;14.15;77.97
79316;BME280;68779;50.036;19.964;2023-05-15T03:12:54;100862.51;;;14.13;79.09
79316;BME280;68779;50.036;19.964;2023-05-15T04:13:40;100828.94;;;14.61;77.94
79316;BME280;68779;50.036;19.964;2023-05-15T04:43:54;100766.86;;;14.37;78.64
79316;BME280;68779;50.036;19.964;2023-05-15T05:14:12;100782.52;;;14.92;76.75
79316;BME280;68779;50.036;19.964;2023-05-15T05:44:28;100785.76;;;15.03;76.92
79316;BME280;68779;50.036;19.964;2023-05-15T06:14:41;100735.87;;;14.77;78.17
79316;BME280;68779;50.036;19.964;2023-05-15T06:44:57;100702.20;;;15.54;76.25
79316;BME280;68779;50.036;19.964;2023-05-15T07:15:11;100706.33;;;15.81;76.42
79316;BME280;68779;50.036;19.964;2023-05-15T07:45:25;100723.31;;;16.67;74.64
79316;BME280;68779;50.036;19.964;2023-05-15T08:15:42;100736.79;;;16.77;74.27
79316;BME280;68779;50.036;19.964;2023-05-15T08:45:55;100739.63;;;17.56;73.32
79316;BME280;68779;50.036;19.964;2023-05-15T09:16:10;100759.60;;;18.15;68.89
79316;BME280;68779;50.036;19.964;2023-05-15T10:03:25;100760.38;;;18.30;67.24
79316;BME280;68779;50.036;19.964;2023-05-15T10:33:42;100763.97;;;18.09;72.11
79316;BME280;68779;50.036;19.964;2023-05-15T11:04:08;100782.06;;;18.54;67.99
79316;BME280;68779;50.036;19.964;2023-05-15T11:34:37;100769.52;;;18.73;66.97
79316;BME280;68779;50.036;19.964;2023-05-15T12:04:48;100753.07;;;19.95;63.77
79316;BME280;68779;50.036;19.964;2023-05-15T12:35:04;100725.99;;;22.18;55.08
79316;BME280;68779;50.036;19.964;2023-05-15T13:05:18;100695.83;;;22.60;54.89
79316;BME280;68779;50.036;19.964;2023-05-15T13:35:32;100719.84;;;20.36;62.84
79316;BME280;68779;50.036;19.964;2023-05-15T14:05:46;100745.41;;;19.43;69.77
79316;BME280;68779;50.036;19.964;2023-05-15T14:36:00;100719.91;;;26.43;53.76
79316;BME280;68779;50.036;19.964;2023-05-15T15:06:15;100725.14;;;21.10;66.76
79316;BME280;68779;50.036;19.964;2023-05-15T15:36:30;100748.13;;;20.51;64.41
79316;BME280;68779;50.036;19.964;2023-05-15T16:06:43;100773.05;;;20.04;64.99
79316;BME280;68779;50.036;19.964;2023-05-15T16:36:57;100790.55;;;19.70;66.79
79316;BME280;68779;50.036;19.964;2023-05-15T17:07:13;100808.52;;;18.76;69.21
79316;BME280;68779;50.036;19.964;2023-05-15T17:37:33;100844.54;;;18.54;63.34
79316;BME280;68779;50.036;19.964;2023-05-15T18:07:47;100871.90;;;17.90;64.10
79316;BME280;68779;50.036;19.964;2023-05-15T18:38:02;100927.72;;;16.64;64.65
79316;BME280;68779;50.036;19.964;2023-05-15T19:08:18;100948.93;;;16.01;63.21
79316;BME280;68779;50.036;19.964;2023-05-15T19:38:35;100986.73;;;15.67;67.28
79316;BME280;68779;50.036;19.964;2023-05-15T20:08:51;101004.17;;;14.93;70.23
79316;BME280;68779;50.036;19.964;2023-05-15T20:39:07;101023.90;;;14.55;69.93
79316;BME280;68779;50.036;19.964;2023-05-15T21:09:23;101043.91;;;14.47;68.70
79316;BME280;68779;50.036;19.964;2023-05-15T21:39:39;101070.14;;;14.07;70.90
79316;BME280;68779;50.036;19.964;2023-05-15T22:09:56;101075.71;;;13.97;70.46
79316;BME280;68779;50.036;19.964;2023-05-15T22:40:12;101086.48;;;13.73;70.58
79316;BME280;68779;50.036;19.964;2023-05-15T23:10:28;101104.14;;;13.61;69.67
79316;BME280;68779;50.036;19.964;2023-05-15T23:40:45;101100.02;;;13.57;69.10
